createdAt,value
2018-05-26T00:00:06.354Z,96.94
2018-05-26T00:01:06.351Z,96.84
2018-05-26T00:02:06.356Z,96.94
2018-05-26T00:03:06.359Z,96.94
2018-05-26T00:04:27.360Z,96.84
2018-05-26T00:05:06.381Z,97.52
2018-05-26T00:06:06.356Z,96.89
2018-05-26T00:07:06.443Z,96.99
2018-05-26T00:08:06.363Z,97.04
2018-05-26T00:09:06.365Z,97.42
2018-05-26T00:10:27.387Z,96.66
2018-05-26T00:11:06.364Z,96.66
2018-05-26T00:12:06.370Z,96.37
2018-05-26T00:13:06.364Z,96.18
2018-05-26T00:14:06.364Z,96.42
2018-05-26T00:15:06.367Z,96.27
2018-05-26T00:16:27.469Z,96.99
2018-05-26T00:17:06.369Z,96.42
2018-05-26T00:18:06.366Z,96.32
2018-05-26T00:19:06.372Z,96.61
2018-05-26T00:20:06.369Z,96.42
2018-05-26T00:21:06.372Z,96.61
2018-05-26T00:22:27.425Z,97.28
2018-05-26T00:23:06.389Z,96.70
2018-05-26T00:24:06.391Z,96.99
2018-05-26T00:25:06.437Z,96.61
2018-05-26T00:26:06.373Z,97.09
2018-05-26T00:27:06.380Z,97.18
2018-05-26T00:28:27.389Z,96.61
2018-05-26T00:29:06.402Z,97.28
2018-05-26T00:30:06.378Z,97.09
2018-05-26T00:31:07.295Z,97.18
2018-05-26T00:32:06.381Z,97.09
2018-05-26T00:33:06.393Z,96.32
2018-05-26T00:34:27.393Z,96.32
2018-05-26T00:35:06.421Z,96.61
2018-05-26T00:36:06.382Z,96.13
2018-05-26T00:37:06.382Z,96.22
2018-05-26T00:38:06.382Z,96.13
2018-05-26T00:39:06.385Z,95.94
2018-05-26T00:40:27.397Z,95.94
2018-05-26T00:41:06.415Z,95.84
2018-05-26T00:42:06.395Z,96.22
2018-05-26T00:43:06.395Z,95.94
2018-05-26T00:44:06.389Z,95.84
2018-05-26T00:45:06.390Z,96.42
2018-05-26T00:46:27.472Z,96.22
2018-05-26T00:47:06.388Z,96.89
2018-05-26T00:48:06.404Z,97.47
2018-05-26T00:49:06.395Z,97.38
2018-05-26T00:50:06.394Z,97.56
2018-05-26T00:51:06.392Z,97.95
2018-05-26T00:52:27.425Z,98.05
2018-05-26T00:53:06.391Z,98.81
2018-05-26T00:54:06.398Z,98.81
2018-05-26T00:55:06.406Z,98.71
2018-05-26T00:56:06.407Z,98.62
2018-05-26T00:57:06.402Z,99.19
2018-05-26T00:58:27.405Z,99.38
2018-05-26T00:59:06.402Z,99.77
2018-05-26T01:00:06.401Z,99.77
2018-05-26T01:01:06.397Z,99.38
2018-05-26T01:02:06.396Z,99.38
2018-05-26T01:03:06.425Z,99.67
2018-05-26T01:04:27.409Z,99.96
2018-05-26T01:05:06.401Z,99.99
2018-05-26T01:06:06.512Z,99.99
2018-05-26T01:07:06.404Z,99.99
2018-05-26T01:08:06.406Z,99.99
2018-05-26T01:09:06.402Z,99.99
2018-05-26T01:10:27.427Z,99.99
2018-05-26T01:11:06.410Z,99.96
2018-05-26T01:12:06.401Z,99.99
2018-05-26T01:13:06.462Z,99.99
2018-05-26T01:14:06.407Z,99.99
2018-05-26T01:15:06.410Z,99.99
2018-05-26T01:16:27.468Z,99.99
2018-05-26T01:17:06.407Z,99.99
2018-05-26T01:18:06.407Z,99.99
2018-05-26T01:19:06.423Z,99.99
2018-05-26T01:20:06.417Z,99.99
2018-05-26T01:21:06.411Z,99.87
2018-05-26T01:22:27.419Z,99.77
2018-05-26T01:23:06.410Z,99.19
2018-05-26T01:24:06.409Z,98.91
2018-05-26T01:25:06.413Z,98.24
2018-05-26T01:26:06.423Z,98.24
2018-05-26T01:27:06.413Z,97.95
2018-05-26T01:28:27.421Z,97.90
2018-05-26T01:29:06.415Z,98.24
2018-05-26T01:30:06.416Z,97.52
2018-05-26T01:31:06.415Z,97.42
2018-05-26T01:32:06.455Z,97.42
2018-05-26T01:33:06.447Z,97.13
2018-05-26T01:34:27.429Z,97.61
2018-05-26T01:35:06.482Z,98.09
2018-05-26T01:36:06.427Z,98.00
2018-05-26T01:37:06.439Z,97.61
2018-05-26T01:38:06.418Z,97.80
2018-05-26T01:39:06.432Z,97.80
2018-05-26T01:40:27.426Z,98.28
2018-05-26T01:41:06.419Z,97.90
2018-05-26T01:42:06.423Z,97.80
2018-05-26T01:43:06.418Z,98.09
2018-05-26T01:44:06.419Z,97.80
2018-05-26T01:45:06.420Z,98.47
2018-05-26T01:46:27.465Z,98.66
2018-05-26T01:47:06.430Z,97.90
2018-05-26T01:48:06.423Z,98.76
2018-05-26T01:49:06.426Z,98.76
2018-05-26T01:50:06.443Z,98.76
2018-05-26T01:51:06.423Z,98.57
2018-05-26T01:52:27.431Z,98.57
2018-05-26T01:53:06.437Z,98.47
2018-05-26T01:54:06.428Z,98.47
2018-05-26T01:55:06.424Z,98.19
2018-05-26T01:56:06.425Z,98.66
2018-05-26T01:57:06.430Z,97.90
2018-05-26T01:58:27.438Z,98.19
2018-05-26T01:59:06.429Z,97.80
2018-05-26T02:00:06.431Z,98.09
2018-05-26T02:01:06.425Z,98.28
2018-05-26T02:02:06.426Z,98.00
2018-05-26T02:03:06.424Z,98.19
2018-05-26T02:04:27.437Z,98.66
2018-05-26T02:05:06.428Z,98.57
2018-05-26T02:06:06.515Z,98.95
2018-05-26T02:07:06.427Z,98.86
2018-05-26T02:08:06.428Z,98.57
2018-05-26T02:09:06.432Z,99.15
2018-05-26T02:10:27.438Z,98.76
2018-05-26T02:11:06.433Z,98.43
2018-05-26T02:12:06.434Z,98.43
2018-05-26T02:13:06.432Z,98.14
2018-05-26T02:14:06.435Z,98.90
2018-05-26T02:15:06.428Z,98.14
2018-05-26T02:16:27.469Z,98.81
2018-05-26T02:17:06.436Z,98.90
2018-05-26T02:18:06.430Z,98.61
2018-05-26T02:19:06.433Z,98.71
2018-05-26T02:20:06.429Z,99.10
2018-05-26T02:21:06.651Z,98.61
2018-05-26T02:22:27.464Z,99.10
2018-05-26T02:23:06.436Z,98.61
2018-05-26T02:24:06.434Z,98.52
2018-05-26T02:25:06.434Z,98.43
2018-05-26T02:26:06.431Z,98.24
2018-05-26T02:27:06.439Z,99.00
2018-05-26T02:28:27.444Z,99.00
2018-05-26T02:29:06.432Z,98.90
2018-05-26T02:30:06.440Z,98.61
2018-05-26T02:31:06.437Z,98.81
2018-05-26T02:32:06.441Z,99.10
2018-05-26T02:33:06.432Z,98.61
2018-05-26T02:34:27.441Z,99.10
2018-05-26T02:35:06.436Z,99.00
2018-05-26T02:36:06.447Z,99.19
2018-05-26T02:37:06.437Z,99.10
2018-05-26T02:38:06.432Z,99.48
2018-05-26T02:39:06.433Z,99.67
2018-05-26T02:40:27.450Z,99.67
2018-05-26T02:41:06.434Z,99.57
2018-05-26T02:42:06.446Z,99.57
2018-05-26T02:43:06.439Z,99.57
2018-05-26T02:44:06.434Z,99.57
2018-05-26T02:45:06.436Z,99.57
2018-05-26T02:46:27.466Z,99.76
2018-05-26T02:47:06.435Z,99.99
2018-05-26T02:48:06.435Z,99.99
2018-05-26T02:49:06.436Z,99.99
2018-05-26T02:50:06.436Z,99.99
2018-05-26T02:51:06.437Z,99.99
2018-05-26T02:52:27.443Z,99.99
2018-05-26T02:53:06.437Z,99.99
2018-05-26T02:54:06.441Z,99.99
2018-05-26T02:55:06.437Z,99.99
2018-05-26T02:56:06.438Z,99.99
2018-05-26T02:57:06.436Z,99.99
2018-05-26T02:58:27.444Z,99.99
2018-05-26T02:59:06.439Z,99.99
2018-05-26T03:00:06.440Z,99.99
2018-05-26T03:01:06.440Z,99.99
2018-05-26T03:02:06.440Z,99.99
2018-05-26T03:03:06.439Z,99.99
2018-05-26T03:04:27.448Z,99.99
2018-05-26T03:05:06.438Z,99.99
2018-05-26T03:06:06.511Z,99.99
2018-05-26T03:07:06.440Z,99.99
2018-05-26T03:08:06.441Z,99.99
2018-05-26T03:09:06.441Z,99.99
2018-05-26T03:10:27.449Z,99.99
2018-05-26T03:11:06.439Z,99.99
2018-05-26T03:12:06.444Z,99.99
2018-05-26T03:13:06.445Z,99.99
2018-05-26T03:14:06.441Z,99.99
2018-05-26T03:15:06.441Z,99.99
2018-05-26T03:16:27.469Z,99.99
2018-05-26T03:17:06.449Z,99.99
2018-05-26T03:18:42.368Z,99.99
2018-05-26T03:19:06.455Z,99.99
2018-05-26T03:20:06.444Z,99.99
2018-05-26T03:21:27.453Z,99.99
2018-05-26T03:22:06.443Z,99.99
2018-05-26T03:23:06.449Z,99.99
2018-05-26T03:24:06.445Z,99.99
2018-05-26T03:25:06.446Z,99.99
2018-05-26T03:26:06.442Z,99.99
2018-05-26T03:27:27.452Z,99.99
2018-05-26T03:28:06.446Z,99.99
2018-05-26T03:29:06.444Z,99.99
2018-05-26T03:30:06.447Z,99.99
2018-05-26T03:31:06.445Z,99.99
2018-05-26T03:32:06.446Z,99.99
2018-05-26T03:33:27.453Z,99.99
2018-05-26T03:34:06.443Z,99.99
2018-05-26T03:35:06.444Z,99.99
2018-05-26T03:36:06.445Z,99.99
2018-05-26T03:37:06.444Z,99.99
2018-05-26T03:38:06.447Z,99.99
2018-05-26T03:39:27.455Z,99.99
2018-05-26T03:40:06.447Z,99.99
2018-05-26T03:41:06.446Z,99.99
2018-05-26T03:42:06.446Z,99.99
2018-05-26T03:43:06.446Z,99.99
2018-05-26T03:44:06.445Z,99.99
2018-05-26T03:45:27.458Z,99.99
2018-05-26T03:46:06.445Z,99.99
2018-05-26T03:47:06.449Z,99.99
2018-05-26T03:48:06.445Z,99.99
2018-05-26T03:49:06.447Z,99.99
2018-05-26T03:50:06.447Z,99.99
2018-05-26T03:51:27.450Z,99.99
2018-05-26T03:52:06.456Z,99.99
2018-05-26T03:53:06.446Z,99.99
2018-05-26T03:54:06.446Z,99.99
2018-05-26T03:55:06.449Z,99.99
2018-05-26T03:56:06.454Z,99.99
2018-05-26T03:57:27.456Z,99.99
2018-05-26T03:58:06.449Z,99.99
2018-05-26T03:59:06.450Z,99.99
2018-05-26T04:00:06.449Z,99.99
2018-05-26T04:01:06.448Z,99.99
2018-05-26T04:02:06.450Z,99.99
2018-05-26T04:03:27.457Z,99.99
2018-05-26T04:04:06.450Z,99.99
2018-05-26T04:05:06.448Z,99.99
2018-05-26T04:06:06.465Z,99.99
2018-05-26T04:07:06.450Z,99.99
2018-05-26T04:08:06.453Z,99.99
2018-05-26T04:09:27.479Z,99.99
2018-05-26T04:10:06.451Z,99.99
2018-05-26T04:11:06.452Z,99.99
2018-05-26T04:12:06.450Z,99.99
2018-05-26T04:13:06.451Z,99.99
2018-05-26T04:14:06.463Z,99.99
2018-05-26T04:15:27.483Z,99.99
2018-05-26T04:16:06.451Z,99.99
2018-05-26T04:17:06.463Z,99.99
2018-05-26T04:18:06.457Z,99.99
2018-05-26T04:19:06.451Z,99.99
2018-05-26T04:20:06.451Z,99.99
2018-05-26T04:21:27.462Z,99.99
2018-05-26T04:22:06.456Z,99.99
2018-05-26T04:23:06.454Z,99.99
2018-05-26T04:24:06.466Z,99.99
2018-05-26T04:25:06.458Z,99.99
2018-05-26T04:26:06.454Z,99.99
2018-05-26T04:27:27.462Z,99.99
2018-05-26T04:28:06.462Z,99.99
2018-05-26T04:29:06.459Z,99.99
2018-05-26T04:30:06.456Z,99.99
2018-05-26T04:31:06.456Z,99.99
2018-05-26T04:32:06.456Z,99.99
2018-05-26T04:33:27.466Z,99.99
2018-05-26T04:34:06.458Z,99.99
2018-05-26T04:35:06.461Z,99.99
2018-05-26T04:36:06.461Z,99.99
2018-05-26T04:37:06.466Z,99.99
2018-05-26T04:38:06.458Z,99.99
2018-05-26T04:39:27.467Z,99.99
2018-05-26T04:40:06.462Z,99.99
2018-05-26T04:41:06.457Z,99.99
2018-05-26T04:42:06.460Z,99.99
2018-05-26T04:43:06.461Z,99.99
2018-05-26T04:44:06.460Z,99.99
2018-05-26T04:45:27.471Z,99.99
2018-05-26T04:46:06.459Z,99.99
2018-05-26T04:47:06.461Z,99.99
2018-05-26T04:48:06.470Z,99.99
2018-05-26T04:49:06.463Z,99.99
2018-05-26T04:50:06.461Z,99.99
2018-05-26T04:51:27.495Z,99.99
2018-05-26T04:52:06.462Z,99.99
2018-05-26T04:53:06.461Z,99.99
2018-05-26T04:54:06.463Z,99.99
2018-05-26T04:55:06.468Z,99.99
2018-05-26T04:56:06.461Z,99.99
2018-05-26T04:57:27.474Z,99.99
2018-05-26T04:58:06.464Z,99.99
2018-05-26T04:59:06.463Z,99.99
2018-05-26T05:00:06.467Z,99.99
2018-05-26T05:01:06.481Z,99.99
2018-05-26T05:02:06.466Z,99.99
2018-05-26T05:03:27.475Z,99.99
2018-05-26T05:04:06.466Z,99.99
2018-05-26T05:05:06.465Z,99.99
2018-05-26T05:06:06.471Z,99.99
2018-05-26T05:07:06.468Z,99.99
2018-05-26T05:08:06.495Z,99.99
2018-05-26T05:09:27.475Z,99.99
2018-05-26T05:10:06.465Z,99.99
2018-05-26T05:11:06.472Z,99.99
2018-05-26T05:12:06.480Z,99.99
2018-05-26T05:13:06.467Z,99.99
2018-05-26T05:14:06.475Z,99.99
2018-05-26T05:15:27.481Z,99.99
2018-05-26T05:16:06.469Z,99.99
2018-05-26T05:17:06.473Z,99.99
2018-05-26T05:18:06.471Z,99.99
2018-05-26T05:19:06.473Z,99.99
2018-05-26T05:20:06.472Z,99.99
2018-05-26T05:21:27.478Z,99.99
2018-05-26T05:22:06.470Z,99.99
2018-05-26T05:23:06.469Z,99.99
2018-05-26T05:24:06.482Z,99.99
2018-05-26T05:25:06.469Z,99.99
2018-05-26T05:26:06.475Z,99.99
2018-05-26T05:27:27.482Z,99.99
2018-05-26T05:28:06.473Z,99.99
2018-05-26T05:29:06.474Z,99.99
2018-05-26T05:30:06.475Z,99.99
2018-05-26T05:31:06.472Z,99.99
2018-05-26T05:32:06.472Z,99.99
2018-05-26T05:33:27.485Z,99.99
2018-05-26T05:34:06.477Z,99.99
2018-05-26T05:35:06.477Z,99.99
2018-05-26T05:36:06.487Z,99.99
2018-05-26T05:37:06.479Z,99.99
2018-05-26T05:38:06.478Z,99.99
2018-05-26T05:39:27.484Z,99.99
2018-05-26T05:40:06.474Z,99.99
2018-05-26T05:41:06.477Z,99.99
2018-05-26T05:42:06.480Z,99.58
2018-05-26T05:43:06.480Z,99.99
2018-05-26T05:44:06.480Z,99.58
2018-05-26T05:45:27.493Z,99.67
2018-05-26T05:46:06.483Z,99.48
2018-05-26T05:47:06.486Z,99.19
2018-05-26T05:48:06.493Z,99.34
2018-05-26T05:49:06.494Z,98.57
2018-05-26T05:50:06.488Z,99.15
2018-05-26T05:51:27.497Z,98.67
2018-05-26T05:52:06.489Z,99.15
2018-05-26T05:53:06.485Z,99.15
2018-05-26T05:54:06.491Z,98.96
2018-05-26T05:55:06.492Z,98.57
2018-05-26T05:56:06.485Z,98.57
2018-05-26T05:57:27.501Z,98.86
2018-05-26T05:58:06.493Z,98.10
2018-05-26T05:59:06.493Z,98.38
2018-05-26T06:00:06.494Z,98.00
2018-05-26T06:01:06.493Z,98.28
2018-05-26T06:02:06.494Z,97.33
2018-05-26T06:03:27.504Z,97.42
2018-05-26T06:04:06.499Z,98.19
2018-05-26T06:05:06.505Z,97.90
2018-05-26T06:06:06.504Z,97.52
2018-05-26T06:07:06.501Z,97.52
2018-05-26T06:08:06.499Z,97.04
2018-05-26T06:09:27.513Z,96.56
2018-05-26T06:10:06.506Z,96.32
2018-05-26T06:11:06.505Z,96.03
2018-05-26T06:12:06.508Z,95.75
2018-05-26T06:13:06.510Z,95.46
2018-05-26T06:14:06.510Z,95.84
2018-05-26T06:15:27.544Z,94.50
2018-05-26T06:16:06.513Z,95.56
2018-05-26T06:17:06.514Z,95.56
2018-05-26T06:18:06.514Z,95.26
2018-05-26T06:19:06.518Z,95.56
2018-05-26T06:20:06.524Z,95.46
2018-05-26T06:21:27.528Z,95.75
2018-05-26T06:22:06.522Z,95.75
2018-05-26T06:23:06.525Z,95.46
2018-05-26T06:24:06.524Z,95.56
2018-05-26T06:25:06.524Z,95.84
2018-05-26T06:26:06.528Z,95.75
2018-05-26T06:27:27.539Z,95.75
2018-05-26T06:28:06.528Z,95.26
2018-05-26T06:29:06.531Z,94.50
2018-05-26T06:30:06.531Z,95.46
2018-05-26T06:31:06.534Z,95.03
2018-05-26T06:32:06.534Z,94.40
2018-05-26T06:33:27.545Z,94.79
2018-05-26T06:34:06.539Z,94.54
2018-05-26T06:35:06.537Z,94.84
2018-05-26T06:36:06.537Z,95.12
2018-05-26T06:37:06.573Z,95.41
2018-05-26T06:38:06.541Z,94.84
2018-05-26T06:39:27.553Z,95.41
2018-05-26T06:40:06.543Z,94.93
2018-05-26T06:41:06.555Z,94.64
2018-05-26T06:42:06.548Z,94.64
2018-05-26T06:43:06.552Z,94.84
2018-05-26T06:44:06.547Z,94.64
2018-05-26T06:45:27.561Z,95.12
2018-05-26T06:46:06.563Z,94.64
2018-05-26T06:47:06.556Z,94.74
2018-05-26T06:48:06.563Z,94.84
2018-05-26T06:49:06.560Z,94.88
2018-05-26T06:50:06.564Z,94.12
2018-05-26T06:51:27.573Z,94.49
2018-05-26T06:52:06.578Z,94.31
2018-05-26T06:53:06.569Z,94.49
2018-05-26T06:54:06.583Z,93.73
2018-05-26T06:55:06.583Z,94.49
2018-05-26T06:56:06.570Z,94.40
2018-05-26T06:57:27.590Z,93.54
2018-05-26T06:58:06.572Z,93.92
2018-05-26T06:59:06.585Z,93.44
2018-05-26T07:00:06.581Z,93.44
2018-05-26T07:01:06.586Z,93.25
2018-05-26T07:02:06.587Z,93.44
2018-05-26T07:03:27.590Z,93.44
2018-05-26T07:04:06.592Z,94.02
2018-05-26T07:05:06.602Z,93.73
2018-05-26T07:06:06.597Z,93.63
2018-05-26T07:07:06.591Z,94.02
2018-05-26T07:08:06.638Z,93.54
2018-05-26T07:09:27.609Z,94.02
2018-05-26T07:10:06.597Z,94.07
2018-05-26T07:11:06.596Z,93.73
2018-05-26T07:12:06.600Z,93.82
2018-05-26T07:13:06.601Z,93.44
2018-05-26T07:14:06.603Z,93.68
2018-05-26T07:15:27.613Z,93.59
2018-05-26T07:16:06.609Z,93.97
2018-05-26T07:17:06.605Z,93.68
2018-05-26T07:18:06.613Z,93.49
2018-05-26T07:19:06.639Z,93.49
2018-05-26T07:20:06.615Z,93.10
2018-05-26T07:21:27.636Z,92.72
2018-05-26T07:22:06.617Z,92.91
2018-05-26T07:23:06.618Z,93.20
2018-05-26T07:24:06.620Z,92.33
2018-05-26T07:25:06.634Z,92.24
2018-05-26T07:26:06.632Z,92.24
2018-05-26T07:27:27.643Z,92.14
2018-05-26T07:28:06.628Z,93.01
2018-05-26T07:29:06.699Z,93.01
2018-05-26T07:30:06.641Z,92.24
2018-05-26T07:31:06.635Z,92.24
2018-05-26T07:32:06.660Z,92.33
2018-05-26T07:33:27.648Z,92.29
2018-05-26T07:34:06.641Z,92.10
2018-05-26T07:35:06.653Z,92.10
2018-05-26T07:36:06.643Z,92.10
2018-05-26T07:37:06.650Z,91.42
2018-05-26T07:38:06.647Z,91.61
2018-05-26T07:39:27.659Z,91.04
2018-05-26T07:40:06.660Z,90.84
2018-05-26T07:41:06.662Z,91.13
2018-05-26T07:42:06.671Z,91.61
2018-05-26T07:43:06.923Z,90.84
2018-05-26T07:44:06.667Z,90.84
2018-05-26T07:45:27.672Z,90.94
2018-05-26T07:46:06.666Z,90.94
2018-05-26T07:47:06.698Z,91.23
2018-05-26T07:48:06.670Z,91.47
2018-05-26T07:49:06.676Z,91.28
2018-05-26T07:50:06.674Z,90.99
2018-05-26T07:51:27.687Z,90.89
2018-05-26T07:52:06.680Z,90.89
2018-05-26T07:53:06.723Z,90.80
2018-05-26T07:54:06.683Z,90.89
2018-05-26T07:55:06.690Z,90.99
2018-05-26T07:56:06.689Z,90.99
2018-05-26T07:57:27.701Z,90.89
2018-05-26T07:58:06.697Z,91.08
2018-05-26T07:59:06.726Z,90.60
2018-05-26T08:00:06.701Z,90.89
2018-05-26T08:01:06.715Z,90.55
2018-05-26T08:02:06.701Z,90.55
2018-05-26T08:03:27.717Z,90.26
2018-05-26T08:04:06.714Z,90.36
2018-05-26T08:05:06.710Z,90.45
2018-05-26T08:06:06.717Z,90.17
2018-05-26T08:07:06.715Z,89.40
2018-05-26T08:08:06.722Z,89.59
2018-05-26T08:09:27.761Z,89.30
2018-05-26T08:10:06.743Z,88.34
2018-05-26T08:11:06.727Z,88.57
2018-05-26T08:12:06.735Z,88.67
2018-05-26T08:13:06.751Z,88.67
2018-05-26T08:14:06.758Z,88.48
2018-05-26T08:15:27.751Z,88.10
2018-05-26T08:16:07.580Z,88.10
2018-05-26T08:17:06.775Z,87.33
2018-05-26T08:18:06.747Z,87.52
2018-05-26T08:19:06.748Z,87.62
2018-05-26T08:20:06.777Z,87.08
2018-05-26T08:21:27.763Z,87.27
2018-05-26T08:22:06.761Z,87.46
2018-05-26T08:23:06.762Z,87.56
2018-05-26T08:24:06.770Z,87.76
2018-05-26T08:25:06.768Z,87.08
2018-05-26T08:26:06.771Z,86.79
2018-05-26T08:27:27.784Z,86.22
2018-05-26T08:28:06.827Z,86.12
2018-05-26T08:29:06.777Z,85.74
2018-05-26T08:30:06.785Z,85.54
2018-05-26T08:31:06.782Z,86.16
2018-05-26T08:32:06.821Z,85.58
2018-05-26T08:33:27.799Z,85.30
2018-05-26T08:34:06.791Z,83.80
2018-05-26T08:35:06.798Z,80.99
2018-05-26T08:36:06.811Z,77.44
2018-05-26T08:37:06.813Z,74.07
2018-05-26T08:38:06.817Z,70.08
2018-05-26T08:39:27.880Z,68.40
2018-05-26T08:40:06.810Z,66.11
2018-05-26T08:41:06.814Z,63.75
2018-05-26T08:42:06.820Z,63.10
2018-05-26T08:43:06.827Z,62.35
2018-05-26T08:44:06.837Z,61.02
2018-05-26T08:45:27.900Z,59.59
2018-05-26T08:46:06.843Z,59.50
2018-05-26T08:47:06.855Z,58.49
2018-05-26T08:48:06.859Z,56.79
2018-05-26T08:49:06.859Z,54.87
2018-05-26T08:50:06.878Z,53.14
2018-05-26T08:51:27.883Z,52.09
2018-05-26T08:52:06.877Z,51.07
2018-05-26T08:53:06.883Z,50.39
2018-05-26T08:54:06.891Z,48.07
2018-05-26T08:55:06.898Z,47.80
2018-05-26T08:56:06.906Z,46.84
2018-05-26T08:57:27.929Z,46.37
2018-05-26T08:58:06.924Z,44.81
2018-05-26T08:59:06.934Z,43.46
2018-05-26T09:00:06.952Z,42.21
2018-05-26T09:01:06.957Z,41.42
2018-05-26T09:02:06.965Z,40.76
2018-05-26T09:03:27.979Z,40.88
2018-05-26T09:04:07.024Z,40.82
2018-05-26T09:05:06.994Z,39.56
2018-05-26T09:06:06.997Z,38.98
2018-05-26T09:07:07.009Z,39.09
2018-05-26T09:08:07.012Z,38.68
2018-05-26T09:09:28.040Z,37.60
2018-05-26T09:10:07.033Z,37.82
2018-05-26T09:11:07.046Z,37.92
2018-05-26T09:12:07.055Z,37.65
2018-05-26T09:13:07.070Z,36.69
2018-05-26T09:14:07.078Z,35.53
2018-05-26T09:15:28.105Z,34.72
2018-05-26T09:16:07.097Z,34.54
2018-05-26T09:17:07.106Z,31.51
2018-05-26T09:18:07.122Z,32.10
2018-05-26T09:19:07.138Z,31.93
2018-05-26T09:20:07.154Z,30.57
2018-05-26T09:21:28.191Z,30.57
2018-05-26T09:22:07.191Z,29.46
2018-05-26T09:23:07.185Z,31.41
2018-05-26T09:24:07.195Z,32.29
2018-05-26T09:25:07.271Z,32.79
2018-05-26T09:26:07.216Z,33.05
2018-05-26T09:27:28.247Z,33.64
2018-05-26T09:28:07.241Z,34.13
2018-05-26T09:29:07.252Z,33.56
2018-05-26T09:30:07.264Z,32.89
2018-05-26T09:31:07.277Z,33.15
2018-05-26T09:32:07.291Z,33.34
2018-05-26T09:33:28.330Z,33.26
2018-05-26T09:34:07.400Z,32.69
2018-05-26T09:35:07.372Z,32.57
2018-05-26T09:36:07.340Z,32.57
2018-05-26T09:37:07.350Z,32.00
2018-05-26T09:38:07.363Z,31.32
2018-05-26T09:39:28.392Z,31.04
2018-05-26T09:40:07.448Z,30.38
2018-05-26T09:41:07.406Z,29.32
2018-05-26T09:42:07.440Z,28.42
2018-05-26T09:43:07.430Z,28.25
2018-05-26T09:44:07.443Z,27.19
2018-05-26T09:45:28.469Z,27.39
2018-05-26T09:46:07.495Z,26.23
2018-05-26T09:47:07.494Z,26.14
2018-05-26T09:48:07.498Z,25.34
2018-05-26T09:49:07.511Z,26.01
2018-05-26T09:50:07.527Z,26.59
2018-05-26T09:51:28.569Z,27.38
2018-05-26T09:52:07.590Z,27.39
2018-05-26T09:53:07.570Z,27.77
2018-05-26T09:54:07.599Z,28.17
2018-05-26T09:55:07.598Z,28.38
2018-05-26T09:56:07.651Z,28.00
2018-05-26T09:57:28.652Z,27.22
2018-05-26T09:58:07.642Z,27.50
2018-05-26T09:59:07.657Z,27.70
2018-05-26T10:00:07.679Z,29.05
2018-05-26T10:01:07.695Z,29.43
2018-05-26T10:02:07.705Z,29.72
2018-05-26T10:03:28.739Z,29.74
2018-05-26T10:04:07.752Z,29.74
2018-05-26T10:05:07.759Z,29.95
2018-05-26T10:06:07.767Z,28.59
2018-05-26T10:07:07.779Z,28.80
2018-05-26T10:08:07.791Z,28.21
2018-05-26T10:09:28.868Z,28.31
2018-05-26T10:10:07.827Z,28.99
2018-05-26T10:11:07.842Z,29.86
2018-05-26T10:12:07.867Z,29.48
2018-05-26T10:13:07.871Z,28.92
2018-05-26T10:14:07.886Z,28.79
2018-05-26T10:15:28.918Z,28.58
2018-05-26T10:16:07.923Z,28.88
2018-05-26T10:17:07.935Z,28.66
2018-05-26T10:18:07.951Z,29.36
2018-05-26T10:19:07.966Z,29.16
2018-05-26T10:20:07.982Z,29.17
2018-05-26T10:21:29.017Z,28.18
2018-05-26T10:22:08.028Z,27.72
2018-05-26T10:23:08.030Z,27.80
2018-05-26T10:24:08.050Z,28.08
2018-05-26T10:25:08.064Z,28.07
2018-05-26T10:26:08.087Z,28.16
2018-05-26T10:27:29.107Z,28.45
2018-05-26T10:28:08.113Z,28.14
2018-05-26T10:29:08.130Z,28.44
2018-05-26T10:30:08.144Z,28.25
2018-05-26T10:31:08.168Z,26.87
2018-05-26T10:32:08.181Z,26.56
2018-05-26T10:33:29.202Z,26.55
2018-05-26T10:34:08.204Z,26.55
2018-05-26T10:35:08.225Z,25.66
2018-05-26T10:36:08.236Z,24.28
2018-05-26T10:37:08.263Z,23.88
2018-05-26T10:38:08.277Z,23.50
2018-05-26T10:39:29.301Z,23.03
2018-05-26T10:40:08.300Z,23.04
2018-05-26T10:41:08.317Z,23.82
2018-05-26T10:42:08.353Z,23.30
2018-05-26T10:43:08.356Z,23.19
2018-05-26T10:44:08.378Z,24.08
2018-05-26T10:45:29.406Z,22.92
2018-05-26T10:46:08.420Z,23.14
2018-05-26T10:47:08.448Z,23.22
2018-05-26T10:48:08.497Z,24.58
2018-05-26T10:49:08.487Z,24.60
2018-05-26T10:50:08.466Z,24.41
2018-05-26T10:51:29.494Z,24.32
2018-05-26T10:52:08.495Z,27.03
2018-05-26T10:53:08.519Z,28.48
2018-05-26T10:54:08.531Z,27.59
2018-05-26T10:55:08.540Z,27.41
2018-05-26T10:56:08.552Z,27.04
2018-05-26T10:57:29.584Z,26.23
2018-05-26T10:58:08.590Z,26.71
2018-05-26T10:59:08.604Z,26.41
2018-05-26T11:00:08.618Z,25.63
2018-05-26T11:01:08.636Z,25.27
2018-05-26T11:02:08.659Z,23.29
2018-05-26T11:03:29.675Z,24.06
2018-05-26T11:04:08.753Z,24.34
2018-05-26T11:05:08.695Z,24.63
2018-05-26T11:06:08.713Z,24.22
2018-05-26T11:07:08.722Z,25.01
2018-05-26T11:08:08.753Z,24.01
2018-05-26T11:09:29.770Z,24.99
2018-05-26T11:10:08.770Z,25.28
2018-05-26T11:11:08.785Z,25.28
2018-05-26T11:12:08.800Z,25.67
2018-05-26T11:13:08.814Z,25.59
2018-05-26T11:14:08.832Z,25.03
2018-05-26T11:15:29.860Z,22.97
2018-05-26T11:16:09.026Z,22.89
2018-05-26T11:17:08.896Z,22.11
2018-05-26T11:18:08.888Z,21.62
2018-05-26T11:19:08.937Z,21.44
2018-05-26T11:20:08.937Z,21.13
2018-05-26T11:21:29.953Z,20.72
2018-05-26T11:22:08.948Z,21.20
2018-05-26T11:23:08.973Z,21.68
2018-05-26T11:24:09.185Z,21.69
2018-05-26T11:25:08.999Z,21.78
2018-05-26T11:26:09.059Z,21.98
2018-05-26T11:27:30.053Z,21.37
2018-05-26T11:28:09.043Z,22.17
2018-05-26T11:29:09.061Z,21.79
2018-05-26T11:30:09.079Z,21.12
2018-05-26T11:31:09.104Z,21.42
2018-05-26T11:32:09.118Z,20.94
2018-05-26T11:33:30.136Z,21.05
2018-05-26T11:34:09.135Z,20.97
2018-05-26T11:35:09.150Z,20.00
2018-05-26T11:36:09.164Z,19.40
2018-05-26T11:37:09.179Z,18.90
2018-05-26T11:38:09.199Z,19.48
2018-05-26T11:39:30.242Z,20.16
2018-05-26T11:40:09.228Z,20.83
2018-05-26T11:41:09.242Z,21.42
2018-05-26T11:42:09.259Z,21.03
2018-05-26T11:43:09.279Z,21.23
2018-05-26T11:44:09.289Z,20.92
2018-05-26T11:45:30.322Z,21.13
2018-05-26T11:46:09.329Z,20.45
2018-05-26T11:47:09.339Z,19.48
2018-05-26T11:48:09.363Z,19.59
2018-05-26T11:49:09.384Z,20.17
2018-05-26T11:50:09.391Z,20.18
2018-05-26T11:51:30.429Z,20.56
2018-05-26T11:52:09.434Z,21.04
2018-05-26T11:53:09.436Z,21.61
2018-05-26T11:54:09.458Z,21.61
2018-05-26T11:55:09.469Z,21.80
2018-05-26T11:56:09.488Z,22.58
2018-05-26T11:57:30.523Z,21.61
2018-05-26T11:58:09.522Z,21.53
2018-05-26T11:59:09.533Z,21.14
2018-05-26T12:00:09.545Z,21.71
2018-05-26T12:01:10.719Z,21.60
2018-05-26T12:02:09.610Z,21.69
2018-05-26T12:03:30.611Z,21.71
2018-05-26T12:04:09.610Z,21.33
2018-05-26T12:05:09.630Z,20.26
2018-05-26T12:06:09.664Z,19.48
2018-05-26T12:07:09.657Z,19.20
2018-05-26T12:08:09.671Z,19.40
2018-05-26T12:09:30.740Z,19.01
2018-05-26T12:10:09.711Z,19.09
2018-05-26T12:11:09.743Z,19.67
2018-05-26T12:12:09.735Z,20.04
2018-05-26T12:13:09.752Z,20.03
2018-05-26T12:14:09.769Z,21.31
2018-05-26T12:15:30.798Z,21.01
2018-05-26T12:16:09.824Z,20.62
2018-05-26T12:17:09.818Z,20.54
2018-05-26T12:18:09.836Z,19.57
2018-05-26T12:19:09.848Z,19.18
2018-05-26T12:20:09.865Z,19.40
2018-05-26T12:21:30.893Z,19.39
2018-05-26T12:22:09.909Z,19.87
2018-05-26T12:23:09.910Z,20.65
2018-05-26T12:24:09.929Z,20.44
2018-05-26T12:25:10.208Z,20.55
2018-05-26T12:26:09.966Z,19.09
2018-05-26T12:27:30.986Z,18.80
2018-05-26T12:28:09.995Z,18.41
2018-05-26T12:29:10.007Z,19.17
2018-05-26T12:30:10.037Z,20.44
2018-05-26T12:31:10.042Z,20.52
2018-05-26T12:32:10.057Z,20.72
2018-05-26T12:33:31.090Z,20.73
2018-05-26T12:34:10.086Z,20.34
2018-05-26T12:35:10.099Z,20.36
2018-05-26T12:36:10.114Z,19.26
2018-05-26T12:37:10.151Z,19.93
2018-05-26T12:38:10.157Z,20.43
2018-05-26T12:39:31.179Z,19.73
2018-05-26T12:40:10.186Z,19.93
2018-05-26T12:41:10.188Z,20.31
2018-05-26T12:42:10.207Z,20.11
2018-05-26T12:43:10.217Z,19.42
2018-05-26T12:44:10.235Z,19.34
2018-05-26T12:45:31.275Z,18.66
2018-05-26T12:46:10.261Z,19.05
2018-05-26T12:47:10.279Z,19.15
2018-05-26T12:48:10.292Z,19.24
2018-05-26T12:49:10.307Z,19.04
2018-05-26T12:50:10.330Z,20.68
2018-05-26T12:51:31.353Z,21.94
2018-05-26T12:52:10.360Z,22.99